This is the latest recevied weather packets stored in our database for station/object W1LH-12. If no packets are shown the sender has not sent any weather packets the latest 10 day(s).
| Time | Temp. | Humidity | Pressure | Rain* | Wind** | Luminosity | Snow |
|---|---|---|---|---|---|---|---|
| 1777503081 | 7.78° C | - | 1017.7 hPa | 0 mm | - | - | - |
| 1777502180 | 7.78° C | - | 1017.7 hPa | 0 mm | - | - | - |
| 1777501880 | 7.78° C | - | 1017.7 hPa | 0 mm | - | - | - |
| 1777500680 | 8.33° C | - | 1017.7 hPa | 0 mm | - | - | - |
| 1777500381 | 8.33° C | - | 1017.7 hPa | 0 mm | - | - | - |
| 1777499781 | 8.89° C | - | 1017.7 hPa | 0 mm | - | - | - |
| 1777498579 | 8.89° C | - | 1017.7 hPa | 0 mm | - | - | - |
| 1777496182 | 10° C | - | 1017.7 hPa | 0 mm | - | - | - |
| 1777495882 | 10.56° C | - | 1018 hPa | 0 mm | - | - | - |
| 1777494682 | 10° C | - | 1018 hPa | 0 mm | - | - | - |
| 1777494080 | 11.67° C | - | 1018 hPa | 0 mm | - | - | - |
| 1777493779 | 11.67° C | - | 1018 hPa | 0 mm | - | - | - |
| 1777493481 | 11.67° C | - | 1017.7 hPa | 0 mm | - | - | - |
| 1777484780 | 9.44° C | - | 1018.7 hPa | 0 mm | - | - | - |
| 1777484481 | 9.44° C | - | 1019 hPa | 0 mm | - | - | - |
| 1777484181 | 9.44° C | - | 1019 hPa | 0 mm | - | - | - |
| 1777483881 | 9.44° C | - | 1019 hPa | 0 mm | - | - | - |
| 1777483580 | 9.44° C | - | 1019 hPa | 0 mm | - | - | - |
| 1777478781 | 8.33° C | - | 1020 hPa | 0 mm | - | - | - |
| 1777478480 | 8.33° C | - | 1019.7 hPa | 0 mm | - | - | - |
| 1777477880 | 8.33° C | - | 1019.7 hPa | 0 mm | - | - | - |
| 1777475481 | 7.78° C | - | 1020 hPa | 0 mm | - | - | - |
| 1777474879 | 7.22° C | - | 1020.4 hPa | 0 mm | - | - | - |
| 1777470380 | 7.22° C | - | 1020.7 hPa | 0 mm | - | - | - |
| 1777466781 | 6.67° C | - | 1020.7 hPa | 0 mm | - | - | - |
* Rain latest hour (hover to see other rain measurements)
** Current wind speed in m/s (hover to see current wind gust speed)